< Cyclone 200611 2006 Season Cyclone 200615 >
Cyclone 200614 (GLENDA)
General InformationDetailed Track InformationTrack Information on Google MapsList of All Images || ResourceGoogle EarthGE AnimationAtom FeedGeoJSON
Detalied Best Track Wind (Time Zone = UTC)
Year Month Day Hour Lat. Long. Wind (kt) Gust (kt) Direc. of Major Storm Axis Radius of Major Storm Axis (nm) Radius of Minor Storm Axis (nm) Direc. of Major Gale Axis Radius of Major Gale Axis (nm) Radius of Minor Gale Axis (nm) Image
2006 3 22 00 -13.9 128.5 20 45 symmetric - - symmetric - - Image
2006 3 22 06 -13.9 128.3 25 45 symmetric - - symmetric - - Image
2006 3 22 12 -13.8 128.4 25 45 symmetric - - symmetric - - Image
2006 3 22 18 -13.9 128.3 25 45 symmetric - - symmetric - - Image
2006 3 23 00 -13.9 128.2 25 45 symmetric - - symmetric - - Image
2006 3 23 06 -14.1 128.4 25 45 symmetric - - symmetric - - Image
2006 3 23 12 -14.2 128.5 25 45 symmetric - - symmetric - - Image
2006 3 23 18 -14.5 128.7 25 45 symmetric - - symmetric - - Image
2006 3 24 00 -14.8 128.9 25 45 symmetric - - symmetric - - Image
2006 3 24 06 -14.8 128.8 25 45 symmetric - - symmetric - - Image
2006 3 24 12 -15.0 128.5 25 45 symmetric - - symmetric - - Image
2006 3 24 18 -14.7 128.4 25 45 symmetric - - symmetric - - Image
2006 3 25 00 -14.7 127.8 25 45 symmetric - - symmetric - - Image
2006 3 25 06 -14.7 127.6 25 45 symmetric - - symmetric - - Image
2006 3 25 12 -14.6 127.4 25 45 symmetric - - symmetric - - Image
2006 3 25 18 -14.8 126.6 25 45 symmetric - - symmetric - - Image
2006 3 26 00 -14.8 125.6 25 45 symmetric - - symmetric - - Image
2006 3 26 06 -14.8 125.3 25 45 symmetric - - symmetric - - Image
2006 3 26 12 -14.6 125.1 25 45 symmetric - - symmetric - - Image
2006 3 26 18 -14.5 124.8 35 45 symmetric - - symmetric - - Image
2006 3 27 00 -14.8 124.4 40 55 symmetric - - symmetric - - Image
2006 3 27 03 -15.0 123.9 45 60 symmetric - - symmetric - - Image
2006 3 27 06 -15.1 123.5 50 70 symmetric - - symmetric - - Image
2006 3 27 09 -15.3 123.2 55 80 symmetric - - symmetric - - Image
2006 3 27 12 -15.4 123.0 65 90 symmetric - - symmetric - - Image
2006 3 27 15 -15.4 122.5 70 95 symmetric - - symmetric - - Image
2006 3 27 18 -15.4 122.3 80 110 symmetric - - symmetric - - Image
2006 3 27 21 -15.4 122.0 90 125 symmetric - - symmetric - - Image
2006 3 28 00 -15.5 121.8 100 145 symmetric - - symmetric - - Image
2006 3 28 03 -15.7 121.5 105 150 symmetric - - symmetric - - Image
2006 3 28 06 -15.9 121.1 110 160 symmetric - - symmetric - - Image
2006 3 28 09 -16.2 120.8 110 160 symmetric - - symmetric - - Image
2006 3 28 12 -16.6 120.4 110 160 symmetric - - symmetric - - Image
2006 3 28 15 -16.7 119.8 110 160 symmetric - - symmetric - - Image
2006 3 28 18 -16.9 119.4 110 160 symmetric - - symmetric - - Image
2006 3 28 21 -17.1 119.1 110 160 symmetric - - symmetric - - Image
2006 3 29 00 -17.3 118.7 105 150 symmetric - - symmetric - - Image
2006 3 29 03 -17.4 118.2 105 150 symmetric - - symmetric - - Image
2006 3 29 06 -17.6 117.8 105 150 symmetric - - symmetric - - Image
2006 3 29 09 -17.8 117.6 105 150 symmetric - - symmetric - - Image
2006 3 29 12 -18.2 117.4 105 150 symmetric - - symmetric - - Image
2006 3 29 15 -18.5 117.0 100 145 symmetric - - symmetric - - Image
2006 3 29 18 -18.7 116.7 100 145 symmetric - - symmetric - - Image
2006 3 29 21 -19.0 116.5 100 145 symmetric - - symmetric - - Image
2006 3 30 00 -19.5 116.4 100 145 symmetric - - symmetric - - Image
2006 3 30 03 -20.0 116.2 100 135 symmetric - - symmetric - - Image
2006 3 30 06 -20.6 115.8 95 125 symmetric - - symmetric - - Image
2006 3 30 09 -21.2 115.5 80 110 symmetric - - symmetric - - Image
2006 3 30 12 -21.4 115.3 70 95 symmetric - - symmetric - - Image
2006 3 30 15 -21.8 115.1 60 85 symmetric - - symmetric - - Image
2006 3 30 18 -22.1 115.1 50 70 symmetric - - symmetric - - Image
2006 3 30 21 -22.6 115.1 40 55 symmetric - - symmetric - - Image
2006 3 31 00 -23.2 115.0 30 45 symmetric - - symmetric - - Image
2006 3 31 03 -23.9 114.9 30 45 symmetric - - symmetric - - Image
2006 3 31 06 -24.5 114.8 25 40 symmetric - - symmetric - - Image
< Cyclone 200611 2006 Season Cyclone 200615 >

Help